sensor_id;sensor_type;location;lat;lon;timestamp;P1;durP1;ratioP1;P2;durP2;ratioP2
76731;SDS011;65656;51.130;13.658;2023-02-28T00:00:56;22.27;;;20.88;;
76731;SDS011;65656;51.130;13.658;2023-02-28T00:04:57;23.13;;;21.75;;
76731;SDS011;65656;51.130;13.658;2023-02-28T00:09:00;32.05;;;30.38;;
76731;SDS011;65656;51.130;13.658;2023-02-28T00:13:03;23.58;;;22.05;;
76731;SDS011;65656;51.130;13.658;2023-02-28T00:17:06;17.45;;;15.98;;
76731;SDS011;65656;51.130;13.658;2023-02-28T00:21:07;20.65;;;19.23;;
76731;SDS011;65656;51.130;13.658;2023-02-28T00:25:11;15.57;;;14.57;;
76731;SDS011;65656;51.130;13.658;2023-02-28T00:29:14;15.38;;;14.15;;
76731;SDS011;65656;51.130;13.658;2023-02-28T00:33:16;27.20;;;25.65;;
76731;SDS011;65656;51.130;13.658;2023-02-28T00:37:18;21.70;;;20.27;;
76731;SDS011;65656;51.130;13.658;2023-02-28T00:41:20;20.77;;;19.55;;
76731;SDS011;65656;51.130;13.658;2023-02-28T00:45:22;22.35;;;20.92;;
76731;SDS011;65656;51.130;13.658;2023-02-28T00:49:23;26.63;;;24.77;;
76731;SDS011;65656;51.130;13.658;2023-02-28T00:53:25;17.40;;;16.02;;
76731;SDS011;65656;51.130;13.658;2023-02-28T00:57:28;29.90;;;28.38;;
76731;SDS011;65656;51.130;13.658;2023-02-28T01:01:30;23.55;;;21.98;;
76731;SDS011;65656;51.130;13.658;2023-02-28T01:05:32;20.60;;;19.38;;
76731;SDS011;65656;51.130;13.658;2023-02-28T01:09:33;22.02;;;20.38;;
76731;SDS011;65656;51.130;13.658;2023-02-28T01:13:36;18.88;;;17.70;;
76731;SDS011;65656;51.130;13.658;2023-02-28T01:17:38;22.77;;;21.42;;
76731;SDS011;65656;51.130;13.658;2023-02-28T01:21:39;20.98;;;19.52;;
76731;SDS011;65656;51.130;13.658;2023-02-28T01:25:41;19.90;;;18.65;;
76731;SDS011;65656;51.130;13.658;2023-02-28T01:29:44;22.17;;;20.75;;
76731;SDS011;65656;51.130;13.658;2023-02-28T01:33:45;25.20;;;23.67;;
76731;SDS011;65656;51.130;13.658;2023-02-28T01:37:47;19.15;;;17.60;;
76731;SDS011;65656;51.130;13.658;2023-02-28T01:41:49;15.40;;;14.43;;
76731;SDS011;65656;51.130;13.658;2023-02-28T01:45:52;18.75;;;17.40;;
76731;SDS011;65656;51.130;13.658;2023-02-28T01:49:55;17.58;;;16.15;;
76731;SDS011;65656;51.130;13.658;2023-02-28T01:53:58;19.17;;;18.02;;
76731;SDS011;65656;51.130;13.658;2023-02-28T01:58:06;30.27;;;28.48;;
76731;SDS011;65656;51.130;13.658;2023-02-28T02:02:11;23.10;;;21.88;;
76731;SDS011;65656;51.130;13.658;2023-02-28T02:06:13;19.95;;;18.65;;
76731;SDS011;65656;51.130;13.658;2023-02-28T02:10:15;25.13;;;23.58;;
76731;SDS011;65656;51.130;13.658;2023-02-28T02:14:26;23.13;;;21.63;;
76731;SDS011;65656;51.130;13.658;2023-02-28T02:18:48;14.68;;;13.57;;
76731;SDS011;65656;51.130;13.658;2023-02-28T02:22:59;16.60;;;15.40;;
76731;SDS011;65656;51.130;13.658;2023-02-28T02:27:16;27.30;;;25.55;;
76731;SDS011;65656;51.130;13.658;2023-02-28T02:31:27;24.60;;;23.20;;
76731;SDS011;65656;51.130;13.658;2023-02-28T02:35:41;20.85;;;19.45;;
76731;SDS011;65656;51.130;13.658;2023-02-28T02:39:49;25.02;;;23.40;;
76731;SDS011;65656;51.130;13.658;2023-02-28T02:43:55;19.90;;;18.58;;
76731;SDS011;65656;51.130;13.658;2023-02-28T02:48:03;28.38;;;26.65;;
76731;SDS011;65656;51.130;13.658;2023-02-28T02:52:11;25.23;;;23.63;;
76731;SDS011;65656;51.130;13.658;2023-02-28T02:56:16;16.20;;;15.10;;
76731;SDS011;65656;51.130;13.658;2023-02-28T03:00:23;21.08;;;19.70;;
76731;SDS011;65656;51.130;13.658;2023-02-28T03:04:30;22.85;;;21.58;;
76731;SDS011;65656;51.130;13.658;2023-02-28T03:08:37;21.02;;;19.80;;
76731;SDS011;65656;51.130;13.658;2023-02-28T03:12:40;29.02;;;27.45;;
76731;SDS011;65656;51.130;13.658;2023-02-28T03:21:27;32.80;;;31.05;;
76731;SDS011;65656;51.130;13.658;2023-02-28T03:25:36;23.20;;;21.90;;
76731;SDS011;65656;51.130;13.658;2023-02-28T03:29:44;34.60;;;32.53;;
76731;SDS011;65656;51.130;13.658;2023-02-28T03:33:50;24.20;;;22.67;;
76731;SDS011;65656;51.130;13.658;2023-02-28T03:37:58;23.35;;;21.92;;
76731;SDS011;65656;51.130;13.658;2023-02-28T03:42:06;24.30;;;22.70;;
76731;SDS011;65656;51.130;13.658;2023-02-28T03:46:12;24.38;;;22.88;;
76731;SDS011;65656;51.130;13.658;2023-02-28T03:50:20;22.25;;;20.80;;
76731;SDS011;65656;51.130;13.658;2023-02-28T03:54:25;24.42;;;23.00;;
76731;SDS011;65656;51.130;13.658;2023-02-28T03:58:35;21.70;;;20.50;;
76731;SDS011;65656;51.130;13.658;2023-02-28T04:02:43;25.85;;;24.30;;
76731;SDS011;65656;51.130;13.658;2023-02-28T04:06:45;16.83;;;15.38;;
76731;SDS011;65656;51.130;13.658;2023-02-28T04:10:48;22.40;;;21.08;;
76731;SDS011;65656;51.130;13.658;2023-02-28T04:15:07;20.73;;;19.33;;
76731;SDS011;65656;51.130;13.658;2023-02-28T04:19:10;25.35;;;23.73;;
76731;SDS011;65656;51.130;13.658;2023-02-28T04:23:13;28.83;;;27.15;;
76731;SDS011;65656;51.130;13.658;2023-02-28T04:27:14;22.10;;;20.77;;
76731;SDS011;65656;51.130;13.658;2023-02-28T04:31:17;25.75;;;24.05;;
76731;SDS011;65656;51.130;13.658;2023-02-28T04:35:19;30.17;;;28.25;;
76731;SDS011;65656;51.130;13.658;2023-02-28T04:39:20;19.52;;;18.10;;
76731;SDS011;65656;51.130;13.658;2023-02-28T04:43:23;21.00;;;19.45;;
76731;SDS011;65656;51.130;13.658;2023-02-28T04:47:25;24.45;;;22.90;;
76731;SDS011;65656;51.130;13.658;2023-02-28T04:51:27;36.13;;;33.80;;
76731;SDS011;65656;51.130;13.658;2023-02-28T04:55:29;29.40;;;27.45;;
76731;SDS011;65656;51.130;13.658;2023-02-28T04:59:30;29.17;;;27.35;;
76731;SDS011;65656;51.130;13.658;2023-02-28T05:03:33;40.08;;;37.38;;
76731;SDS011;65656;51.130;13.658;2023-02-28T05:07:34;33.85;;;31.70;;
76731;SDS011;65656;51.130;13.658;2023-02-28T05:11:36;18.95;;;17.33;;
76731;SDS011;65656;51.130;13.658;2023-02-28T05:15:38;22.90;;;21.40;;
76731;SDS011;65656;51.130;13.658;2023-02-28T05:19:40;25.95;;;24.23;;
76731;SDS011;65656;51.130;13.658;2023-02-28T05:23:42;30.17;;;28.10;;
76731;SDS011;65656;51.130;13.658;2023-02-28T05:27:43;26.48;;;24.80;;
76731;SDS011;65656;51.130;13.658;2023-02-28T05:31:45;30.15;;;28.25;;
76731;SDS011;65656;51.130;13.658;2023-02-28T05:35:48;21.27;;;19.75;;
76731;SDS011;65656;51.130;13.658;2023-02-28T05:39:50;23.75;;;22.23;;
76731;SDS011;65656;51.130;13.658;2023-02-28T05:43:51;28.92;;;27.33;;
76731;SDS011;65656;51.130;13.658;2023-02-28T05:47:53;25.70;;;24.10;;
76731;SDS011;65656;51.130;13.658;2023-02-28T05:51:56;25.75;;;23.98;;
76731;SDS011;65656;51.130;13.658;2023-02-28T05:55:58;51.20;;;48.55;;
76731;SDS011;65656;51.130;13.658;2023-02-28T05:59:59;25.58;;;24.08;;
76731;SDS011;65656;51.130;13.658;2023-02-28T06:04:01;30.48;;;28.42;;
76731;SDS011;65656;51.130;13.658;2023-02-28T06:08:06;16.88;;;15.45;;
76731;SDS011;65656;51.130;13.658;2023-02-28T06:12:07;25.95;;;24.23;;
76731;SDS011;65656;51.130;13.658;2023-02-28T06:16:09;28.90;;;26.85;;
76731;SDS011;65656;51.130;13.658;2023-02-28T06:20:12;33.05;;;30.90;;
76731;SDS011;65656;51.130;13.658;2023-02-28T06:24:15;43.60;;;41.35;;
76731;SDS011;65656;51.130;13.658;2023-02-28T06:28:16;26.65;;;24.98;;
76731;SDS011;65656;51.130;13.658;2023-02-28T06:32:18;26.13;;;24.27;;
76731;SDS011;65656;51.130;13.658;2023-02-28T06:36:19;36.10;;;33.35;;
76731;SDS011;65656;51.130;13.658;2023-02-28T06:40:22;22.05;;;20.20;;
76731;SDS011;65656;51.130;13.658;2023-02-28T06:44:24;43.20;;;41.05;;
76731;SDS011;65656;51.130;13.658;2023-02-28T06:48:25;32.28;;;30.10;;
76731;SDS011;65656;51.130;13.658;2023-02-28T06:52:28;25.50;;;23.73;;
76731;SDS011;65656;51.130;13.658;2023-02-28T06:56:31;23.40;;;21.98;;
76731;SDS011;65656;51.130;13.658;2023-02-28T07:00:33;29.02;;;27.23;;
76731;SDS011;65656;51.130;13.658;2023-02-28T07:04:34;29.52;;;27.17;;
76731;SDS011;65656;51.130;13.658;2023-02-28T07:08:36;20.02;;;15.45;;
76731;SDS011;65656;51.130;13.658;2023-02-28T07:12:39;25.38;;;23.42;;
76731;SDS011;65656;51.130;13.658;2023-02-28T07:16:41;20.77;;;19.08;;
76731;SDS011;65656;51.130;13.658;2023-02-28T07:20:42;24.90;;;23.00;;
76731;SDS011;65656;51.130;13.658;2023-02-28T07:24:44;30.13;;;28.13;;
76731;SDS011;65656;51.130;13.658;2023-02-28T07:28:47;23.90;;;21.88;;
76731;SDS011;65656;51.130;13.658;2023-02-28T07:32:49;31.25;;;29.23;;
76731;SDS011;65656;51.130;13.658;2023-02-28T07:36:52;22.63;;;20.80;;
76731;SDS011;65656;51.130;13.658;2023-02-28T07:40:54;24.33;;;22.08;;
76731;SDS011;65656;51.130;13.658;2023-02-28T07:44:57;22.25;;;20.58;;
76731;SDS011;65656;51.130;13.658;2023-02-28T07:48:58;28.50;;;26.35;;
76731;SDS011;65656;51.130;13.658;2023-02-28T07:53:00;23.08;;;21.20;;
76731;SDS011;65656;51.130;13.658;2023-02-28T07:57:01;32.65;;;30.42;;
76731;SDS011;65656;51.130;13.658;2023-02-28T08:01:08;21.98;;;20.23;;
76731;SDS011;65656;51.130;13.658;2023-02-28T08:05:11;30.23;;;28.05;;
76731;SDS011;65656;51.130;13.658;2023-02-28T08:09:13;28.42;;;26.33;;
76731;SDS011;65656;51.130;13.658;2023-02-28T08:13:14;24.35;;;22.13;;
76731;SDS011;65656;51.130;13.658;2023-02-28T08:17:17;23.98;;;22.02;;
76731;SDS011;65656;51.130;13.658;2023-02-28T08:21:19;24.90;;;23.20;;
76731;SDS011;65656;51.130;13.658;2023-02-28T08:25:21;58.00;;;54.90;;
76731;SDS011;65656;51.130;13.658;2023-02-28T08:29:23;27.95;;;25.90;;
76731;SDS011;65656;51.130;13.658;2023-02-28T08:33:26;27.75;;;25.80;;
76731;SDS011;65656;51.130;13.658;2023-02-28T08:37:28;17.15;;;15.52;;
76731;SDS011;65656;51.130;13.658;2023-02-28T08:41:30;22.17;;;20.30;;
76731;SDS011;65656;51.130;13.658;2023-02-28T08:45:32;30.25;;;28.40;;
76731;SDS011;65656;51.130;13.658;2023-02-28T08:49:36;25.40;;;23.55;;
76731;SDS011;65656;51.130;13.658;2023-02-28T08:53:38;18.50;;;16.83;;
76731;SDS011;65656;51.130;13.658;2023-02-28T08:57:40;20.30;;;18.63;;
76731;SDS011;65656;51.130;13.658;2023-02-28T09:01:42;18.65;;;17.13;;
76731;SDS011;65656;51.130;13.658;2023-02-28T09:05:52;23.15;;;21.40;;
76731;SDS011;65656;51.130;13.658;2023-02-28T09:09:55;14.00;;;12.70;;
76731;SDS011;65656;51.130;13.658;2023-02-28T09:13:57;21.38;;;18.85;;
76731;SDS011;65656;51.130;13.658;2023-02-28T09:17:59;19.83;;;18.15;;
76731;SDS011;65656;51.130;13.658;2023-02-28T09:22:02;21.13;;;19.45;;
76731;SDS011;65656;51.130;13.658;2023-02-28T09:26:03;16.55;;;15.10;;
76731;SDS011;65656;51.130;13.658;2023-02-28T09:30:06;18.35;;;16.65;;
76731;SDS011;65656;51.130;13.658;2023-02-28T09:34:09;18.73;;;17.10;;
76731;SDS011;65656;51.130;13.658;2023-02-28T09:38:12;18.67;;;17.00;;
76731;SDS011;65656;51.130;13.658;2023-02-28T09:42:18;26.15;;;24.33;;
76731;SDS011;65656;51.130;13.658;2023-02-28T09:46:32;22.38;;;20.77;;
76731;SDS011;65656;51.130;13.658;2023-02-28T09:50:39;20.00;;;18.45;;
76731;SDS011;65656;51.130;13.658;2023-02-28T09:54:44;21.58;;;20.00;;
76731;SDS011;65656;51.130;13.658;2023-02-28T09:58:46;26.60;;;24.63;;
76731;SDS011;65656;51.130;13.658;2023-02-28T10:02:54;19.50;;;17.63;;
76731;SDS011;65656;51.130;13.658;2023-02-28T10:07:06;31.50;;;29.35;;
76731;SDS011;65656;51.130;13.658;2023-02-28T10:11:19;25.05;;;23.30;;
76731;SDS011;65656;51.130;13.658;2023-02-28T10:15:21;25.98;;;24.02;;
76731;SDS011;65656;51.130;13.658;2023-02-28T10:19:26;27.60;;;25.77;;
76731;SDS011;65656;51.130;13.658;2023-02-28T10:23:34;19.00;;;17.45;;
76731;SDS011;65656;51.130;13.658;2023-02-28T10:27:39;20.95;;;19.27;;
76731;SDS011;65656;51.130;13.658;2023-02-28T10:31:41;22.98;;;21.35;;
76731;SDS011;65656;51.130;13.658;2023-02-28T10:35:42;25.15;;;23.45;;
76731;SDS011;65656;51.130;13.658;2023-02-28T10:39:44;33.08;;;30.90;;
76731;SDS011;65656;51.130;13.658;2023-02-28T10:43:49;31.08;;;28.85;;
76731;SDS011;65656;51.130;13.658;2023-02-28T10:47:51;43.88;;;41.25;;
76731;SDS011;65656;51.130;13.658;2023-02-28T10:51:56;28.17;;;26.02;;
76731;SDS011;65656;51.130;13.658;2023-02-28T10:55:59;23.77;;;21.98;;
76731;SDS011;65656;51.130;13.658;2023-02-28T11:00:12;30.95;;;28.95;;
76731;SDS011;65656;51.130;13.658;2023-02-28T11:04:16;23.63;;;21.60;;
76731;SDS011;65656;51.130;13.658;2023-02-28T11:08:19;23.65;;;21.30;;
76731;SDS011;65656;51.130;13.658;2023-02-28T11:12:22;28.30;;;25.20;;
76731;SDS011;65656;51.130;13.658;2023-02-28T11:16:34;23.90;;;21.83;;
76731;SDS011;65656;51.130;13.658;2023-02-28T11:20:38;26.95;;;24.92;;
76731;SDS011;65656;51.130;13.658;2023-02-28T11:24:41;33.65;;;31.15;;
76731;SDS011;65656;51.130;13.658;2023-02-28T11:28:45;20.40;;;18.65;;
76731;SDS011;65656;51.130;13.658;2023-02-28T11:32:49;27.15;;;24.88;;
76731;SDS011;65656;51.130;13.658;2023-02-28T11:36:51;32.13;;;29.75;;
76731;SDS011;65656;51.130;13.658;2023-02-28T11:41:00;29.48;;;27.35;;
76731;SDS011;65656;51.130;13.658;2023-02-28T11:45:22;27.75;;;25.67;;
76731;SDS011;65656;51.130;13.658;2023-02-28T11:49:42;28.23;;;26.02;;
76731;SDS011;65656;51.130;13.658;2023-02-28T11:53:57;27.02;;;24.92;;
76731;SDS011;65656;51.130;13.658;2023-02-28T12:02:46;30.88;;;28.83;;
76731;SDS011;65656;51.130;13.658;2023-02-28T12:07:03;20.58;;;18.63;;
76731;SDS011;65656;51.130;13.658;2023-02-28T12:11:14;23.80;;;21.58;;
76731;SDS011;65656;51.130;13.658;2023-02-28T12:20:02;20.42;;;18.52;;
76731;SDS011;65656;51.130;13.658;2023-02-28T12:24:17;28.85;;;26.80;;
76731;SDS011;65656;51.130;13.658;2023-02-28T12:28:33;23.48;;;21.42;;
76731;SDS011;65656;51.130;13.658;2023-02-28T12:32:37;21.73;;;19.90;;
76731;SDS011;65656;51.130;13.658;2023-02-28T12:36:42;34.53;;;31.98;;
76731;SDS011;65656;51.130;13.658;2023-02-28T12:40:49;37.22;;;34.88;;
76731;SDS011;65656;51.130;13.658;2023-02-28T12:44:54;25.30;;;23.10;;
76731;SDS011;65656;51.130;13.658;2023-02-28T12:49:00;29.13;;;26.80;;
76731;SDS011;65656;51.130;13.658;2023-02-28T12:53:08;20.70;;;17.48;;
76731;SDS011;65656;51.130;13.658;2023-02-28T12:57:17;26.33;;;24.30;;
76731;SDS011;65656;51.130;13.658;2023-02-28T13:01:31;20.45;;;18.73;;
76731;SDS011;65656;51.130;13.658;2023-02-28T13:10:11;18.70;;;16.80;;
76731;SDS011;65656;51.130;13.658;2023-02-28T13:14:19;18.42;;;16.63;;
76731;SDS011;65656;51.130;13.658;2023-02-28T13:18:27;29.85;;;27.70;;
76731;SDS011;65656;51.130;13.658;2023-02-28T13:22:44;32.88;;;30.40;;
76731;SDS011;65656;51.130;13.658;2023-02-28T13:31:32;22.50;;;20.40;;
76731;SDS011;65656;51.130;13.658;2023-02-28T13:36:09;24.13;;;21.83;;
76731;SDS011;65656;51.130;13.658;2023-02-28T13:40:28;34.85;;;32.53;;
76731;SDS011;65656;51.130;13.658;2023-02-28T13:44:31;21.98;;;20.08;;
76731;SDS011;65656;51.130;13.658;2023-02-28T13:49:23;21.13;;;19.02;;
76731;SDS011;65656;51.130;13.658;2023-02-28T13:53:40;21.92;;;20.02;;
76731;SDS011;65656;51.130;13.658;2023-02-28T13:58:09;22.95;;;21.08;;
76731;SDS011;65656;51.130;13.658;2023-02-28T14:02:29;18.17;;;16.23;;
76731;SDS011;65656;51.130;13.658;2023-02-28T14:06:48;26.83;;;24.45;;
76731;SDS011;65656;51.130;13.658;2023-02-28T14:11:02;23.23;;;21.10;;
76731;SDS011;65656;51.130;13.658;2023-02-28T14:15:23;23.50;;;21.13;;
76731;SDS011;65656;51.130;13.658;2023-02-28T14:19:29;25.15;;;22.83;;
76731;SDS011;65656;51.130;13.658;2023-02-28T14:23:38;24.05;;;21.92;;
76731;SDS011;65656;51.130;13.658;2023-02-28T14:27:47;22.25;;;20.33;;
76731;SDS011;65656;51.130;13.658;2023-02-28T14:31:57;26.20;;;24.25;;
76731;SDS011;65656;51.130;13.658;2023-02-28T14:36:04;29.55;;;26.63;;
76731;SDS011;65656;51.130;13.658;2023-02-28T14:40:13;21.40;;;19.23;;
76731;SDS011;65656;51.130;13.658;2023-02-28T14:44:17;27.98;;;25.65;;
76731;SDS011;65656;51.130;13.658;2023-02-28T14:48:19;34.78;;;32.05;;
76731;SDS011;65656;51.130;13.658;2023-02-28T14:52:23;22.77;;;20.70;;
76731;SDS011;65656;51.130;13.658;2023-02-28T14:56:29;27.75;;;25.38;;
76731;SDS011;65656;51.130;13.658;2023-02-28T15:00:34;28.73;;;26.10;;
76731;SDS011;65656;51.130;13.658;2023-02-28T15:04:37;20.70;;;18.77;;
76731;SDS011;65656;51.130;13.658;2023-02-28T15:08:39;23.75;;;21.70;;
76731;SDS011;65656;51.130;13.658;2023-02-28T15:12:42;26.52;;;24.02;;
76731;SDS011;65656;51.130;13.658;2023-02-28T15:16:51;23.52;;;21.48;;
76731;SDS011;65656;51.130;13.658;2023-02-28T15:20:57;22.08;;;20.15;;
76731;SDS011;65656;51.130;13.658;2023-02-28T15:25:03;30.75;;;27.95;;
76731;SDS011;65656;51.130;13.658;2023-02-28T15:29:10;24.77;;;22.45;;
76731;SDS011;65656;51.130;13.658;2023-02-28T15:33:19;26.17;;;22.73;;
76731;SDS011;65656;51.130;13.658;2023-02-28T15:37:32;23.02;;;20.88;;
76731;SDS011;65656;51.130;13.658;2023-02-28T15:41:39;26.02;;;23.67;;
76731;SDS011;65656;51.130;13.658;2023-02-28T15:45:44;27.58;;;25.15;;
76731;SDS011;65656;51.130;13.658;2023-02-28T15:49:47;24.15;;;21.80;;
76731;SDS011;65656;51.130;13.658;2023-02-28T15:53:53;25.92;;;23.50;;
76731;SDS011;65656;51.130;13.658;2023-02-28T15:58:00;22.98;;;19.88;;
76731;SDS011;65656;51.130;13.658;2023-02-28T16:02:15;22.15;;;19.83;;
76731;SDS011;65656;51.130;13.658;2023-02-28T16:06:34;23.23;;;21.00;;
76731;SDS011;65656;51.130;13.658;2023-02-28T16:10:39;18.55;;;16.40;;
76731;SDS011;65656;51.130;13.658;2023-02-28T16:14:41;22.13;;;19.90;;
76731;SDS011;65656;51.130;13.658;2023-02-28T16:18:44;21.58;;;18.20;;
76731;SDS011;65656;51.130;13.658;2023-02-28T16:22:46;28.95;;;26.40;;
76731;SDS011;65656;51.130;13.658;2023-02-28T16:26:48;29.27;;;26.48;;
76731;SDS011;65656;51.130;13.658;2023-02-28T16:30:51;22.63;;;20.35;;
76731;SDS011;65656;51.130;13.658;2023-02-28T16:34:55;21.77;;;19.58;;
76731;SDS011;65656;51.130;13.658;2023-02-28T16:38:57;41.08;;;38.47;;
76731;SDS011;65656;51.130;13.658;2023-02-28T16:42:58;19.73;;;17.75;;
76731;SDS011;65656;51.130;13.658;2023-02-28T16:47:01;20.77;;;18.67;;
76731;SDS011;65656;51.130;13.658;2023-02-28T16:51:06;26.70;;;23.05;;
76731;SDS011;65656;51.130;13.658;2023-02-28T16:55:07;26.08;;;22.60;;
76731;SDS011;65656;51.130;13.658;2023-02-28T16:59:09;29.98;;;27.13;;
76731;SDS011;65656;51.130;13.658;2023-02-28T17:03:17;31.35;;;28.77;;
76731;SDS011;65656;51.130;13.658;2023-02-28T17:07:34;24.50;;;21.83;;
76731;SDS011;65656;51.130;13.658;2023-02-28T17:11:35;22.77;;;20.25;;
76731;SDS011;65656;51.130;13.658;2023-02-28T17:15:37;24.30;;;21.95;;
76731;SDS011;65656;51.130;13.658;2023-02-28T17:19:39;30.08;;;27.58;;
76731;SDS011;65656;51.130;13.658;2023-02-28T17:23:42;25.00;;;22.48;;
76731;SDS011;65656;51.130;13.658;2023-02-28T17:27:44;33.28;;;30.40;;
76731;SDS011;65656;51.130;13.658;2023-02-28T17:31:46;50.13;;;46.22;;
76731;SDS011;65656;51.130;13.658;2023-02-28T17:35:47;32.17;;;28.83;;
76731;SDS011;65656;51.130;13.658;2023-02-28T17:39:50;28.98;;;25.95;;
76731;SDS011;65656;51.130;13.658;2023-02-28T17:43:52;36.10;;;31.23;;
76731;SDS011;65656;51.130;13.658;2023-02-28T17:47:53;40.50;;;36.83;;
76731;SDS011;65656;51.130;13.658;2023-02-28T17:51:55;37.35;;;33.42;;
76731;SDS011;65656;51.130;13.658;2023-02-28T17:55:58;55.90;;;50.28;;
76731;SDS011;65656;51.130;13.658;2023-02-28T17:59:59;38.25;;;33.03;;
76731;SDS011;65656;51.130;13.658;2023-02-28T18:04:04;46.10;;;38.33;;
76731;SDS011;65656;51.130;13.658;2023-02-28T18:08:05;43.67;;;33.17;;
76731;SDS011;65656;51.130;13.658;2023-02-28T18:12:08;46.33;;;40.50;;
76731;SDS011;65656;51.130;13.658;2023-02-28T18:16:10;47.78;;;42.92;;
76731;SDS011;65656;51.130;13.658;2023-02-28T18:20:11;44.42;;;40.17;;
76731;SDS011;65656;51.130;13.658;2023-02-28T18:24:14;50.55;;;45.03;;
76731;SDS011;65656;51.130;13.658;2023-02-28T18:28:17;71.45;;;64.40;;
76731;SDS011;65656;51.130;13.658;2023-02-28T18:32:19;79.80;;;71.63;;
76731;SDS011;65656;51.130;13.658;2023-02-28T18:36:20;62.60;;;56.47;;
76731;SDS011;65656;51.130;13.658;2023-02-28T18:40:22;42.33;;;37.88;;
76731;SDS011;65656;51.130;13.658;2023-02-28T18:44:25;47.30;;;43.00;;
76731;SDS011;65656;51.130;13.658;2023-02-28T18:48:26;43.10;;;38.90;;
76731;SDS011;65656;51.130;13.658;2023-02-28T18:52:28;34.63;;;31.05;;
76731;SDS011;65656;51.130;13.658;2023-02-28T18:56:29;44.40;;;39.20;;
76731;SDS011;65656;51.130;13.658;2023-02-28T19:00:32;38.67;;;34.60;;
76731;SDS011;65656;51.130;13.658;2023-02-28T19:04:34;46.97;;;41.03;;
76731;SDS011;65656;51.130;13.658;2023-02-28T19:08:35;35.40;;;31.65;;
76731;SDS011;65656;51.130;13.658;2023-02-28T19:12:37;40.28;;;36.00;;
76731;SDS011;65656;51.130;13.658;2023-02-28T19:16:41;45.72;;;41.05;;
76731;SDS011;65656;51.130;13.658;2023-02-28T19:20:44;36.83;;;32.30;;
76731;SDS011;65656;51.130;13.658;2023-02-28T19:24:46;54.08;;;49.42;;
76731;SDS011;65656;51.130;13.658;2023-02-28T19:28:47;45.28;;;41.05;;
76731;SDS011;65656;51.130;13.658;2023-02-28T19:32:50;43.97;;;39.83;;
76731;SDS011;65656;51.130;13.658;2023-02-28T19:36:52;37.90;;;34.28;;
76731;SDS011;65656;51.130;13.658;2023-02-28T19:40:58;49.88;;;45.03;;
76731;SDS011;65656;51.130;13.658;2023-02-28T19:45:01;47.90;;;43.25;;
76731;SDS011;65656;51.130;13.658;2023-02-28T19:49:05;44.53;;;40.53;;
76731;SDS011;65656;51.130;13.658;2023-02-28T19:53:06;48.80;;;44.55;;
76731;SDS011;65656;51.130;13.658;2023-02-28T19:57:08;42.53;;;37.80;;
76731;SDS011;65656;51.130;13.658;2023-02-28T20:01:10;58.95;;;54.10;;
76731;SDS011;65656;51.130;13.658;2023-02-28T20:05:14;41.42;;;37.33;;
76731;SDS011;65656;51.130;13.658;2023-02-28T20:09:16;54.05;;;49.03;;
76731;SDS011;65656;51.130;13.658;2023-02-28T20:13:17;51.95;;;47.63;;
76731;SDS011;65656;51.130;13.658;2023-02-28T20:17:23;41.10;;;37.28;;
76731;SDS011;65656;51.130;13.658;2023-02-28T20:21:26;43.72;;;39.65;;
76731;SDS011;65656;51.130;13.658;2023-02-28T20:25:27;40.15;;;36.63;;
76731;SDS011;65656;51.130;13.658;2023-02-28T20:29:29;40.10;;;36.50;;
76731;SDS011;65656;51.130;13.658;2023-02-28T20:33:30;34.58;;;31.02;;
76731;SDS011;65656;51.130;13.658;2023-02-28T20:37:33;29.42;;;24.40;;
76731;SDS011;65656;51.130;13.658;2023-02-28T20:41:34;31.30;;;28.15;;
76731;SDS011;65656;51.130;13.658;2023-02-28T20:45:36;43.67;;;39.58;;
76731;SDS011;65656;51.130;13.658;2023-02-28T20:49:37;65.10;;;60.63;;
76731;SDS011;65656;51.130;13.658;2023-02-28T20:53:40;35.97;;;32.10;;
76731;SDS011;65656;51.130;13.658;2023-02-28T20:57:42;45.78;;;41.35;;
76731;SDS011;65656;51.130;13.658;2023-02-28T21:01:44;51.03;;;46.47;;
76731;SDS011;65656;51.130;13.658;2023-02-28T21:05:45;39.10;;;34.83;;
76731;SDS011;65656;51.130;13.658;2023-02-28T21:09:48;36.88;;;31.75;;
76731;SDS011;65656;51.130;13.658;2023-02-28T21:13:50;35.78;;;32.25;;
76731;SDS011;65656;51.130;13.658;2023-02-28T21:17:52;36.30;;;30.45;;
76731;SDS011;65656;51.130;13.658;2023-02-28T21:21:53;38.75;;;34.83;;
76731;SDS011;65656;51.130;13.658;2023-02-28T21:26:01;40.42;;;35.03;;
76731;SDS011;65656;51.130;13.658;2023-02-28T21:30:03;37.92;;;34.30;;
76731;SDS011;65656;51.130;13.658;2023-02-28T21:34:06;40.92;;;36.28;;
76731;SDS011;65656;51.130;13.658;2023-02-28T21:38:09;39.78;;;35.53;;
76731;SDS011;65656;51.130;13.658;2023-02-28T21:42:12;37.80;;;33.28;;
76731;SDS011;65656;51.130;13.658;2023-02-28T21:46:14;36.17;;;31.15;;
76731;SDS011;65656;51.130;13.658;2023-02-28T21:50:16;37.88;;;32.38;;
76731;SDS011;65656;51.130;13.658;2023-02-28T21:54:18;40.03;;;36.10;;
76731;SDS011;65656;51.130;13.658;2023-02-28T21:58:21;36.50;;;33.08;;
76731;SDS011;65656;51.130;13.658;2023-02-28T22:02:22;40.22;;;36.30;;
76731;SDS011;65656;51.130;13.658;2023-02-28T22:06:25;40.75;;;36.53;;
76731;SDS011;65656;51.130;13.658;2023-02-28T22:10:28;46.22;;;41.40;;
76731;SDS011;65656;51.130;13.658;2023-02-28T22:14:31;39.00;;;34.65;;
76731;SDS011;65656;51.130;13.658;2023-02-28T22:18:32;40.83;;;35.55;;
76731;SDS011;65656;51.130;13.658;2023-02-28T22:22:34;41.33;;;37.03;;
76731;SDS011;65656;51.130;13.658;2023-02-28T22:26:36;45.67;;;41.45;;
76731;SDS011;65656;51.130;13.658;2023-02-28T22:30:39;37.38;;;32.17;;
76731;SDS011;65656;51.130;13.658;2023-02-28T22:34:40;38.35;;;31.65;;
76731;SDS011;65656;51.130;13.658;2023-02-28T22:38:42;42.00;;;37.58;;
76731;SDS011;65656;51.130;13.658;2023-02-28T22:42:45;38.05;;;32.83;;
76731;SDS011;65656;51.130;13.658;2023-02-28T22:46:48;34.20;;;29.48;;
76731;SDS011;65656;51.130;13.658;2023-02-28T22:50:59;41.95;;;38.08;;
76731;SDS011;65656;51.130;13.658;2023-02-28T22:55:01;35.95;;;32.65;;
76731;SDS011;65656;51.130;13.658;2023-02-28T22:59:03;31.42;;;27.75;;
76731;SDS011;65656;51.130;13.658;2023-02-28T23:03:05;37.50;;;33.78;;
76731;SDS011;65656;51.130;13.658;2023-02-28T23:07:07;32.45;;;29.10;;
76731;SDS011;65656;51.130;13.658;2023-02-28T23:11:09;38.95;;;35.10;;
76731;SDS011;65656;51.130;13.658;2023-02-28T23:15:11;41.20;;;36.92;;
76731;SDS011;65656;51.130;13.658;2023-02-28T23:19:15;45.05;;;38.75;;
76731;SDS011;65656;51.130;13.658;2023-02-28T23:23:18;56.38;;;51.10;;
76731;SDS011;65656;51.130;13.658;2023-02-28T23:27:19;45.33;;;40.70;;
76731;SDS011;65656;51.130;13.658;2023-02-28T23:31:21;59.50;;;54.70;;
76731;SDS011;65656;51.130;13.658;2023-02-28T23:35:24;53.85;;;48.78;;
76731;SDS011;65656;51.130;13.658;2023-02-28T23:39:26;79.00;;;73.20;;
76731;SDS011;65656;51.130;13.658;2023-02-28T23:43:29;37.42;;;33.35;;
76731;SDS011;65656;51.130;13.658;2023-02-28T23:47:30;33.97;;;29.42;;
76731;SDS011;65656;51.130;13.658;2023-02-28T23:51:33;42.65;;;38.67;;